Time;durP1;ratioP1;P1;durP2;ratioP2;P2;SDS_P1;SDS_P2;PMS_P1;PMS_P2;Temp;Humidity;BMP_temperature;BMP_pressure;BME280_temperature;BME280_humidity;BME280_pressure;Samples;Min_cycle;Max_cycle;Signal;HPM_P1;HPM_P2
2022/11/07 02:17:13;;;;;;;2.72;1.60;;;;;;;17.09;66.62;100628.88;5291005;23;20050;-87
2022/11/07 02:23:07;;;;;;;3.13;1.33;;;;;;;17.09;66.38;100639.28;4882425;24;1330193;-83
2022/11/07 02:25:34;;;;;;;3.15;1.42;;;;;;;17.08;66.43;100635.84;4829913;29;20035;-87
2022/11/07 02:33:52;;;;;;;3.97;1.70;;;;;;;17.08;66.46;100625.44;4923923;24;20066;-89
2022/11/07 02:45:40;;;;;;;;;;;;;;;17.09;66.49;100629.75;5132938;24;20080;-88
2022/11/07 02:48:06;;;;;;;2.67;1.58;;;;;;;17.06;66.54;100620.25;4830244;29;19913;-87
2022/11/07 02:53:53;;;;;;;2.88;1.23;;;;;;;17.06;66.41;100625.44;4955894;24;20065;-89
2022/11/07 02:59:29;;;;;;;3.05;1.48;;;;;;;17.08;66.24;100638.44;5268644;24;20042;-87
2022/11/07 03:05:13;;;;;;;3.08;1.63;;;;;;;17.08;66.56;100637.59;4915270;24;20046;-88
2022/11/07 03:07:40;;;;;;;2.65;1.40;;;;;;;17.07;66.65;100631.50;4817341;29;20030;-83
2022/11/07 03:10:09;;;;;;;3.65;1.55;;;;;;;17.07;66.78;100634.09;4830372;29;20030;-83
2022/11/07 03:15:29;;;;;;;3.03;1.52;;;;;;;17.06;66.33;100638.44;5212615;24;20035;-88
2022/11/07 03:21:13;;;;;;;2.72;1.30;;;;;;;17.07;66.51;100641.91;4933123;24;20066;-87
2022/11/07 03:27:01;;;;;;;2.50;1.40;;;;;;;17.07;66.40;100647.09;5464051;24;20059;-88
2022/11/07 03:30:04;;;;;;;3.85;1.30;;;;;;;17.08;66.32;100659.25;4815250;29;20035;-88
2022/11/07 03:41:16;;;;;;;2.65;1.20;;;;;;;17.04;66.19;100658.41;5243472;24;20068;-87
2022/11/07 03:47:05;;;;;;;3.00;1.42;;;;;;;17.05;66.43;100648.88;5148598;24;20079;-87
2022/11/07 03:49:31;;;;;;;2.05;1.30;;;;;;;17.05;66.41;100647.13;4828096;29;20074;-82
2022/11/07 03:51:56;;;;;;;1.95;1.25;;;;;;;17.07;66.37;100652.28;4810793;29;20022;-82
2022/11/07 03:54:22;;;;;;;3.17;1.23;;;;;;;17.05;66.27;100648.88;4796067;29;20038;-82
2022/11/07 03:56:47;;;;;;;2.20;1.13;;;;;;;17.06;65.99;100656.66;4811179;29;20050;-82
2022/11/07 03:59:12;;;;;;;2.90;1.17;;;;;;;17.08;66.09;100666.19;4796966;29;20042;-83
2022/11/07 04:01:38;;;;;;;3.63;1.60;;;;;;;17.06;66.35;100667.03;4812296;29;20078;-82
2022/11/07 04:04:04;;;;;;;3.05;1.30;;;;;;;17.06;66.14;100666.19;4797226;29;20223;-82
2022/11/07 04:06:29;;;;;;;2.08;1.10;;;;;;;17.06;66.04;100661.84;4813192;29;20125;-82
2022/11/07 04:08:54;;;;;;;2.42;1.20;;;;;;;17.05;66.37;100665.34;4830028;29;20470;-82
2022/11/07 04:19:32;;;;;;;2.40;1.15;;;;;;;17.04;66.29;100654.94;4816918;29;20041;-83
2022/11/07 04:21:57;;;;;;;2.28;1.02;;;;;;;17.05;66.44;100651.47;4793932;29;20038;-82
2022/11/07 04:24:23;;;;;;;2.40;1.25;;;;;;;17.06;66.08;100648.00;4812109;29;20042;-82
2022/11/07 04:29:32;;;;;;;2.38;1.20;;;;;;;17.05;66.61;100641.09;4815223;29;20083;-82
2022/11/07 04:31:57;;;;;;;2.17;1.02;;;;;;;17.05;66.22;100644.53;4829264;29;20030;-82
2022/11/07 04:34:23;;;;;;;2.03;1.20;;;;;;;17.06;66.13;100648.00;4828357;29;20031;-82
2022/11/07 04:36:48;;;;;;;2.00;1.20;;;;;;;17.05;66.29;100638.47;4802399;29;20368;-83
2022/11/07 04:39:14;;;;;;;2.83;1.05;;;;;;;17.05;66.02;100643.69;4830984;29;20022;-82
2022/11/07 04:41:39;;;;;;;3.00;1.25;;;;;;;17.04;66.26;100642.78;4813474;29;20026;-82
2022/11/07 04:44:04;;;;;;;2.90;1.10;;;;;;;17.06;66.08;100653.19;4798861;29;20042;-82
2022/11/07 04:46:30;;;;;;;3.17;1.30;;;;;;;17.05;66.24;100649.72;4798138;29;20110;-82
2022/11/07 04:48:55;;;;;;;2.53;1.30;;;;;;;17.04;66.18;100640.19;4829300;29;20065;-82
2022/11/07 04:51:21;;;;;;;3.50;1.48;;;;;;;17.05;66.09;100651.47;4814230;29;20048;-82
2022/11/07 04:53:47;;;;;;;2.35;1.10;;;;;;;17.04;66.25;100658.41;4809700;29;20381;-82
2022/11/07 04:56:12;;;;;;;2.75;1.30;;;;;;;17.04;66.20;100661.00;4793871;29;20026;-82
2022/11/07 04:58:37;;;;;;;2.38;1.15;;;;;;;17.05;66.22;100670.53;4795328;29;20042;-82
2022/11/07 05:01:03;;;;;;;3.13;1.10;;;;;;;17.05;66.21;100667.94;4793140;29;20039;-82
2022/11/07 05:03:28;;;;;;;2.28;1.10;;;;;;;17.04;66.04;100666.19;4781209;29;20034;-83
2022/11/07 05:05:54;;;;;;;1.88;1.08;;;;;;;17.04;66.18;100660.13;4797003;29;20410;-82
2022/11/07 05:08:19;;;;;;;3.63;1.27;;;;;;;17.04;65.97;100653.19;4818445;29;20034;-84
2022/11/07 05:10:45;;;;;;;3.03;1.27;;;;;;;17.03;66.17;100656.69;4803703;29;20034;-85
2022/11/07 05:13:10;;;;;;;4.13;1.27;;;;;;;17.03;66.31;100659.28;4818895;29;20439;-83
2022/11/07 05:15:35;;;;;;;2.47;1.17;;;;;;;17.03;66.24;100658.44;4817683;29;20048;-83
2022/11/07 05:18:01;;;;;;;2.35;1.23;;;;;;;17.03;66.33;100668.84;4788524;29;20112;-81
2022/11/07 05:20:31;;;;;;;1.92;1.10;;;;;;;17.04;66.15;100666.19;4809833;29;20397;-82
2022/11/07 05:23:16;;;;;;;1.70;0.85;;;;;;;17.04;66.24;100665.34;4811908;29;20041;-82
2022/11/07 05:25:48;;;;;;;2.45;1.00;;;;;;;17.04;66.29;100662.75;4800898;29;20486;-82
2022/11/07 05:28:25;;;;;;;3.15;1.17;;;;;;;17.04;66.12;100666.19;4811225;29;20033;-82
2022/11/07 05:30:50;;;;;;;2.60;1.08;;;;;;;17.04;66.13;100665.34;4811900;29;20095;-81
2022/11/07 05:33:17;;;;;;;2.22;1.10;;;;;;;17.03;66.08;100663.63;4825798;29;20034;-82
2022/11/07 05:35:43;;;;;;;1.83;0.88;;;;;;;17.04;65.98;100662.75;4808849;29;20038;-81
2022/11/07 05:38:09;;;;;;;2.35;1.00;;;;;;;17.03;66.04;100656.69;4826754;29;20031;-82
2022/11/07 05:40:36;;;;;;;1.60;0.80;;;;;;;17.06;66.17;100663.59;4810474;29;20106;-82
2022/11/07 05:43:03;;;;;;;3.50;0.98;;;;;;;17.08;65.69;100660.97;4809881;29;20035;-82
2022/11/07 05:45:30;;;;;;;2.58;1.10;;;;;;;17.10;65.99;100670.47;4809054;29;20486;-83
2022/11/07 05:48:01;;;;;;;2.75;1.20;;;;;;;17.11;66.05;100667.00;4808902;29;20099;-83
2022/11/07 05:50:27;;;;;;;3.53;1.20;;;;;;;17.13;65.99;100666.97;4812390;29;20031;-82
2022/11/07 05:52:54;;;;;;;2.97;1.10;;;;;;;17.13;66.01;100678.25;4815817;29;20094;-84
2022/11/07 05:55:28;;;;;;;3.00;1.10;;;;;;;17.14;66.03;100676.53;4811997;29;20018;-82
2022/11/07 05:57:54;;;;;;;1.67;0.90;;;;;;;17.15;65.87;100666.09;4823506;29;20060;-86
2022/11/07 06:00:20;;;;;;;2.17;1.00;;;;;;;17.16;66.02;100678.22;4800018;29;20497;-81
2022/11/07 06:02:56;;;;;;;2.33;1.05;;;;;;;17.16;66.41;100683.44;4804331;29;20034;-79
2022/11/07 06:05:22;;;;;;;4.88;1.70;;;;;;;17.17;66.40;100679.09;4807437;29;20041;-79
2022/11/07 06:07:47;;;;;;;7.40;3.00;;;;;;;17.19;66.36;100690.34;4799032;29;20471;-80
2022/11/07 06:10:13;;;;;;;8.25;3.00;;;;;;;17.22;66.20;100690.28;4805310;29;20035;-80
2022/11/07 06:12:38;;;;;;;12.15;3.70;;;;;;;17.20;66.43;100690.31;4796225;29;20071;-78
2022/11/07 06:15:04;;;;;;;11.27;3.25;;;;;;;17.21;66.19;100683.38;4780456;29;20124;-82
2022/11/07 06:17:29;;;;;;;12.05;2.85;;;;;;;17.21;66.38;100680.78;4808555;29;20045;-80
2022/11/07 06:19:54;;;;;;;7.05;2.67;;;;;;;17.21;66.48;100685.97;4807570;29;20031;-80
2022/11/07 06:22:20;;;;;;;7.45;2.90;;;;;;;17.19;66.51;100679.94;4821633;29;20073;-80
2022/11/07 06:24:45;;;;;;;13.52;2.90;;;;;;;17.19;66.74;100693.78;4808821;29;20035;-81
2022/11/07 06:27:11;;;;;;;8.90;2.55;;;;;;;17.18;66.78;100701.59;4825120;29;20037;-82
2022/11/07 06:29:36;;;;;;;6.00;2.45;;;;;;;17.20;66.77;100692.03;4807067;29;20043;-79
2022/11/07 06:32:02;;;;;;;6.63;2.80;;;;;;;17.18;66.86;100686.88;4791980;29;20509;-79
2022/11/07 06:34:27;;;;;;;7.05;2.55;;;;;;;17.18;66.73;100686.00;4824808;29;20042;-78
2022/11/07 06:36:54;;;;;;;6.32;2.60;;;;;;;17.18;66.93;100691.19;4808342;29;20038;-78
2022/11/07 06:39:20;;;;;;;10.07;2.58;;;;;;;17.19;66.95;100695.53;4808619;29;20039;-78
2022/11/07 06:41:47;;;;;;;6.90;2.70;;;;;;;17.19;66.79;100698.13;4789951;29;20035;-79
2022/11/07 06:44:13;;;;;;;12.13;4.05;;;;;;;17.21;66.93;100697.22;4805474;29;20148;-79
2022/11/07 06:46:38;;;;;;;10.48;3.75;;;;;;;17.22;67.02;100703.28;4777846;29;20537;-79
2022/11/07 06:49:04;;;;;;;12.90;4.30;;;;;;;17.21;66.92;100696.38;4788058;29;20054;-83
2022/11/07 06:51:29;;;;;;;13.43;3.72;;;;;;;17.19;67.16;100706.78;4789968;29;20042;-82
2022/11/07 06:53:55;;;;;;;12.85;3.78;;;;;;;17.18;67.19;100706.78;4759996;29;20045;-82
2022/11/07 06:56:20;;;;;;;8.35;3.28;;;;;;;17.19;66.93;100706.78;4807748;29;20043;-81
2022/11/07 06:58:45;;;;;;;14.70;4.38;;;;;;;17.16;67.12;100701.63;4792670;29;20065;-81
2022/11/07 07:01:15;;;;;;;10.18;3.60;;;;;;;17.17;67.09;100703.34;4778951;29;20034;-82
2022/11/07 07:03:41;;;;;;;10.65;3.25;;;;;;;17.17;67.36;100712.88;4793409;29;20509;-82
2022/11/07 07:06:11;;;;;;;10.75;3.30;;;;;;;17.17;67.13;100707.69;4793937;29;20043;-82
2022/11/07 07:08:37;;;;;;;9.48;3.17;;;;;;;17.17;67.04;100699.88;4810215;29;20496;-81
2022/11/07 07:11:04;;;;;;;8.32;3.00;;;;;;;17.17;67.09;100705.09;4779345;29;20058;-83
2022/11/07 07:13:30;;;;;;;9.27;3.35;;;;;;;17.15;66.92;100704.25;4780316;29;20111;-83
2022/11/07 07:15:56;;;;;;;9.82;3.42;;;;;;;17.16;67.07;100704.22;4794352;29;20110;-83
2022/11/07 07:18:23;;;;;;;8.15;2.85;;;;;;;17.17;67.03;100710.28;4794497;29;20045;-81
2022/11/07 07:20:49;;;;;;;9.00;3.15;;;;;;;17.16;66.75;100711.16;4794888;29;20030;-83
2022/11/07 07:23:16;;;;;;;8.75;2.92;;;;;;;17.16;66.91;100717.22;4794449;29;20031;-83
2022/11/07 07:25:41;;;;;;;8.82;3.20;;;;;;;17.16;67.36;100718.94;4810645;29;20479;-83
2022/11/07 07:28:07;;;;;;;7.10;2.88;;;;;;;17.15;67.09;100730.25;4794247;29;20038;-82
2022/11/07 07:30:35;;;;;;;10.48;3.17;;;;;;;17.16;66.99;100729.34;4794773;29;20027;-84
2022/11/07 07:33:00;;;;;;;6.15;2.90;;;;;;;17.16;66.84;100724.16;4793909;29;20468;-83
2022/11/07 07:35:26;;;;;;;6.45;2.92;;;;;;;17.15;67.01;100735.44;4764510;29;20031;-82
2022/11/07 07:37:52;;;;;;;7.78;3.05;;;;;;;17.15;67.00;100743.25;4796164;29;20034;-81
2022/11/07 07:40:18;;;;;;;7.18;2.90;;;;;;;17.16;66.89;100745.84;4794796;29;20045;-82
2022/11/07 07:42:43;;;;;;;7.60;2.90;;;;;;;17.13;67.06;100740.63;4779557;29;20050;-84
2022/11/07 07:45:11;;;;;;;6.97;2.95;;;;;;;17.16;67.01;100744.94;4790857;29;20043;-87
2022/11/07 07:47:37;;;;;;;6.25;2.85;;;;;;;17.15;67.00;100753.63;4794876;29;20065;-87
2022/11/07 07:50:04;;;;;;;8.18;2.83;;;;;;;17.16;66.96;100752.75;4805816;29;20082;-85
2022/11/07 07:52:31;;;;;;;8.02;2.80;;;;;;;17.13;66.97;100760.59;4806574;29;20497;-85
2022/11/07 07:54:56;;;;;;;7.10;2.75;;;;;;;17.14;66.84;100760.59;4807786;29;20098;-85
2022/11/07 07:57:21;;;;;;;5.32;2.78;;;;;;;17.14;66.71;100768.38;4792213;29;20038;-85
2022/11/07 07:59:47;;;;;;;8.32;2.60;;;;;;;17.13;66.79;100774.44;4807779;29;20038;-85
2022/11/07 08:02:12;;;;;;;7.88;2.85;;;;;;;17.13;66.75;100776.19;4805859;29;20041;-85
2022/11/07 08:04:40;;;;;;;7.55;2.60;;;;;;;17.14;67.16;100780.53;4802979;29;20038;-85
2022/11/07 08:10:11;;;;;;;6.68;3.00;;;;;;;17.15;66.71;100790.03;4823017;29;20038;-86
2022/11/07 08:12:44;;;;;;;6.60;2.63;;;;;;;17.14;66.65;100791.78;4806297;29;20054;-85
2022/11/07 08:15:12;;;;;;;7.13;2.42;;;;;;;17.14;66.77;100797.00;4805108;29;20026;-85
2022/11/07 08:17:43;;;;;;;6.53;2.40;;;;;;;17.15;66.46;100800.44;4802892;29;20084;-85
2022/11/07 08:20:10;;;;;;;5.65;2.40;;;;;;;17.15;66.65;100805.66;4807021;29;20062;-84
2022/11/07 08:22:37;;;;;;;5.57;2.30;;;;;;;17.15;66.51;100798.69;4801093;29;20031;-85
2022/11/07 08:25:19;;;;;;;5.75;2.58;;;;;;;17.15;66.59;100803.03;4800801;29;20031;-85
2022/11/07 08:27:45;;;;;;;5.97;2.35;;;;;;;17.15;66.53;100790.91;4802197;29;20034;-85
2022/11/07 08:30:48;;;;;;;5.82;2.53;;;;;;;17.16;66.66;100796.94;4788590;29;20037;-84
2022/11/07 08:36:36;;;;;;;5.43;2.50;;;;;;;17.15;66.47;100809.09;4823977;29;20042;-85
2022/11/07 08:39:01;;;;;;;8.18;2.50;;;;;;;17.17;66.37;100816.91;4801196;29;20030;-86
2022/11/07 08:41:27;;;;;;;5.97;2.75;;;;;;;17.19;66.28;100816.00;4794035;29;20106;-84
2022/11/07 08:43:52;;;;;;;5.32;2.33;;;;;;;17.19;66.18;100816.00;4773173;29;20498;-86
2022/11/07 08:46:17;;;;;;;6.43;2.20;;;;;;;17.19;66.28;100826.41;4770399;29;20047;-84
2022/11/07 08:48:43;;;;;;;3.75;2.08;;;;;;;17.20;66.17;100828.16;4783992;29;20074;-85
2022/11/07 08:51:08;;;;;;;5.47;2.25;;;;;;;17.20;66.28;100822.94;4782743;29;20060;-84
2022/11/07 08:53:34;;;;;;;7.30;2.60;;;;;;;17.21;66.26;100824.66;4785807;29;20525;-84
2022/11/07 08:56:05;;;;;;;5.63;2.05;;;;;;;17.22;66.28;100825.50;4784173;29;20035;-85
2022/11/07 08:58:30;;;;;;;5.18;2.13;;;;;;;17.21;66.14;100826.41;4797191;29;20474;-84
2022/11/07 09:00:56;;;;;;;5.03;2.30;;;;;;;17.24;66.14;100834.16;4784817;29;20058;-85
2022/11/07 09:03:22;;;;;;;4.90;1.95;;;;;;;17.23;66.23;100832.47;4800301;29;20026;-84
2022/11/07 09:05:47;;;;;;;4.68;2.03;;;;;;;17.24;66.11;100834.16;4782490;29;20034;-84
2022/11/07 09:08:12;;;;;;;8.32;2.50;;;;;;;17.25;66.22;100835.91;4784325;29;20039;-84
2022/11/07 09:10:38;;;;;;;4.78;2.00;;;;;;;17.25;66.02;100835.91;4785493;29;20038;-87
2022/11/07 09:13:03;;;;;;;3.65;1.92;;;;;;;17.24;65.99;100834.16;4783895;29;20034;-84
2022/11/07 09:15:29;;;;;;;5.10;2.10;;;;;;;17.24;66.13;100828.97;4767953;29;20142;-84
2022/11/07 09:17:54;;;;;;;5.20;2.33;;;;;;;17.24;66.31;100828.97;4781513;29;20031;-85
2022/11/07 09:20:19;;;;;;;4.25;1.98;;;;;;;17.26;65.97;100837.63;4781700;29;20039;-85
2022/11/07 09:22:45;;;;;;;5.10;2.17;;;;;;;17.26;65.98;100835.03;4796373;29;20027;-85
2022/11/07 09:25:11;;;;;;;5.50;2.10;;;;;;;17.27;66.07;100841.97;4781821;29;20544;-86
2022/11/07 09:27:36;;;;;;;5.47;1.90;;;;;;;17.25;65.83;100830.72;4795229;29;20027;-85
2022/11/07 09:30:20;;;;;;;3.67;1.85;;;;;;;17.27;65.93;100837.63;4796598;29;20547;-85
2022/11/07 09:32:46;;;;;;;5.78;2.30;;;;;;;17.28;65.95;100846.28;4811431;29;20046;-86
2022/11/07 09:35:12;;;;;;;3.28;1.70;;;;;;;17.28;65.93;100843.69;4779390;29;20031;-84
2022/11/07 09:37:41;;;;;;;4.03;2.00;;;;;;;17.28;65.95;100851.47;4795182;29;20037;-88
2022/11/07 09:40:20;;;;;;;4.93;1.85;;;;;;;17.27;66.06;100850.63;4795078;29;20022;-86
2022/11/07 09:42:54;;;;;;;4.90;1.98;;;;;;;17.26;66.30;100854.09;4811206;29;20030;-85
2022/11/07 09:45:20;;;;;;;5.18;1.88;;;;;;;17.25;65.99;100848.91;4799205;29;20058;-84
2022/11/07 09:48:02;;;;;;;4.70;1.95;;;;;;;17.26;66.16;100859.28;4795031;29;20398;-86
2022/11/07 09:50:48;;;;;;;4.72;1.73;;;;;;;17.26;66.04;100863.63;4795030;29;20030;-84
2022/11/07 09:53:27;;;;;;;4.70;2.03;;;;;;;17.27;66.11;100866.22;4797495;29;20030;-85
2022/11/07 09:55:59;;;;;;;5.85;2.08;;;;;;;17.25;65.91;100865.38;4796188;29;20029;-85
2022/11/07 09:58:39;;;;;;;4.35;1.83;;;;;;;17.24;65.84;100868.84;4796754;29;20034;-85
2022/11/07 10:01:10;;;;;;;4.53;1.92;;;;;;;17.26;66.08;100876.63;4798906;29;20026;-85
2022/11/07 10:03:37;;;;;;;4.78;1.70;;;;;;;17.26;65.82;100871.44;4781288;29;20437;-89
2022/11/07 10:06:05;;;;;;;4.40;1.77;;;;;;;17.26;65.75;100877.50;4812416;29;20034;-86
2022/11/07 10:08:44;;;;;;;5.63;1.88;;;;;;;17.27;65.98;100887.03;4798598;29;20072;-86
2022/11/07 10:11:35;;;;;;;4.28;1.85;;;;;;;17.27;65.92;100891.38;4796836;29;20090;-85
2022/11/07 10:14:44;;;;;;;4.03;1.50;;;;;;;17.28;65.93;100886.16;4802764;29;20031;-85
2022/11/07 10:17:15;;;;;;;3.80;1.60;;;;;;;17.28;66.10;100883.53;4805603;29;20039;-85
2022/11/07 10:19:59;;;;;;;4.25;1.80;;;;;;;17.28;65.86;100880.94;4798098;29;20057;-85
2022/11/07 10:22:27;;;;;;;3.72;1.70;;;;;;;17.28;65.96;100886.16;4799369;29;20034;-86
2022/11/07 10:25:21;;;;;;;3.53;1.48;;;;;;;17.28;65.82;100882.69;4803804;29;20027;-86
2022/11/07 10:27:53;;;;;;;5.13;1.80;;;;;;;17.28;65.87;100891.34;4803922;29;20394;-83
2022/11/07 10:30:20;;;;;;;3.70;1.77;;;;;;;17.27;65.97;100883.56;4783620;29;20042;-85
2022/11/07 10:33:18;;;;;;;3.58;1.48;;;;;;;17.27;66.06;100900.03;4783476;29;20053;-84
2022/11/07 10:35:51;;;;;;;3.90;1.45;;;;;;;17.28;66.13;100909.56;4803287;29;20049;-85
2022/11/07 10:38:40;;;;;;;3.80;1.63;;;;;;;17.27;66.01;100910.44;4786713;29;20037;-85
2022/11/07 10:41:13;;;;;;;4.75;1.80;;;;;;;17.27;66.26;100907.84;4786288;29;20382;-87
2022/11/07 10:43:40;;;;;;;;;;;;;;;17.27;65.96;100914.78;4816815;29;20034;-88
2022/11/07 10:46:37;;;;;;;4.20;1.60;;;;;;;17.28;66.29;100913.91;4796566;29;19956;-86
2022/11/07 10:49:32;;;;;;;3.47;1.42;;;;;;;17.26;66.05;100915.63;4798241;29;20055;-86
2022/11/07 10:52:25;;;;;;;2.92;1.35;;;;;;;17.26;65.74;100920.84;4799352;29;20054;-86
2022/11/07 10:54:51;;;;;;;4.50;1.47;;;;;;;17.25;65.97;100922.59;4795618;29;20571;-86
2022/11/07 10:57:22;;;;;;;3.75;1.60;;;;;;;17.25;66.15;100924.34;4798440;29;20314;-86
2022/11/07 10:59:50;;;;;;;3.38;1.48;;;;;;;17.26;65.78;100920.84;4799268;29;20039;-88
2022/11/07 11:02:22;;;;;;;4.25;1.48;;;;;;;17.23;65.76;100911.34;4800677;29;20034;-85
2022/11/07 11:05:03;;;;;;;3.83;1.27;;;;;;;17.24;66.18;100914.78;4800216;29;20037;-85
2022/11/07 11:07:34;;;;;;;3.50;1.17;;;;;;;17.22;65.92;100926.94;4798356;29;20041;-86
2022/11/07 11:10:33;;;;;;;4.70;1.48;;;;;;;17.22;65.90;100916.53;4803669;29;20065;-83
2022/11/07 11:12:59;;;;;;;3.05;1.58;;;;;;;17.22;66.01;100907.03;4796682;29;20403;-88
2022/11/07 11:15:26;;;;;;;3.92;1.52;;;;;;;17.22;65.85;100911.34;4788540;29;20038;-86
2022/11/07 11:17:57;;;;;;;5.10;1.42;;;;;;;17.22;66.21;100913.94;4793183;29;20034;-85
2022/11/07 11:20:40;;;;;;;3.42;1.50;;;;;;;17.23;65.94;100911.34;4799188;29;20066;-85
2022/11/07 11:23:18;;;;;;;3.60;1.40;;;;;;;17.25;65.93;100914.78;4803874;29;20041;-88
2022/11/07 11:25:47;;;;;;;3.45;1.38;;;;;;;17.24;65.94;100915.66;4798120;29;20296;-85
2022/11/07 11:28:51;;;;;;;2.60;1.27;;;;;;;17.23;65.88;100913.94;4800554;29;20061;-85
2022/11/07 11:31:17;;;;;;;3.83;1.58;;;;;;;17.23;66.02;100911.34;4820000;29;20035;-85
2022/11/07 11:40:24;;;;;;;2.80;1.40;;;;;;;17.22;65.96;100913.94;4819760;29;20529;-86
2022/11/07 11:43:27;;;;;;;4.32;1.63;;;;;;;17.24;65.93;100912.19;4801792;29;20046;-85
2022/11/07 11:46:12;;;;;;;4.68;1.38;;;;;;;17.22;65.87;100908.72;4819230;29;20492;-85
2022/11/07 11:48:52;;;;;;;4.25;1.67;;;;;;;17.22;65.78;100909.63;4801942;29;20058;-86
2022/11/07 11:51:55;;;;;;;3.15;1.40;;;;;;;17.24;65.85;100915.66;4802154;29;20555;-87
2022/11/07 11:54:26;;;;;;;4.00;1.42;;;;;;;17.24;65.73;100915.66;4814896;29;20027;-86
2022/11/07 11:56:57;;;;;;;4.50;1.70;;;;;;;17.23;65.86;100913.94;4801317;29;20031;-85
2022/11/07 11:59:30;;;;;;;2.78;1.30;;;;;;;17.25;65.82;100920.00;4798706;29;20117;-87
2022/11/07 12:02:30;;;;;;;2.97;1.55;;;;;;;17.25;65.95;100907.00;4798503;29;20035;-85
2022/11/07 12:05:20;;;;;;;2.95;1.40;;;;;;;17.24;65.83;100915.66;4814994;29;20109;-86
2022/11/07 12:08:23;;;;;;;3.63;1.35;;;;;;;17.24;65.85;100910.44;4797999;29;20031;-85
2022/11/07 12:11:23;;;;;;;2.55;1.17;;;;;;;17.25;66.04;100911.34;4798366;29;20027;-86
2022/11/07 12:14:26;;;;;;;3.28;1.35;;;;;;;17.25;65.81;100906.13;4796114;29;20031;-86
2022/11/07 12:17:02;;;;;;;3.58;1.40;;;;;;;17.24;65.85;100901.78;4798732;29;20041;-87
2022/11/07 12:19:58;;;;;;;3.55;1.23;;;;;;;17.24;65.90;100910.44;4796870;29;20470;-86
2022/11/07 12:22:33;;;;;;;2.78;1.10;;;;;;;17.25;65.94;100906.13;4793230;29;20077;-85
2022/11/07 12:25:06;;;;;;;2.90;1.20;;;;;;;17.24;66.09;100902.63;4796953;29;20034;-86
2022/11/07 12:27:37;;;;;;;3.45;1.20;;;;;;;17.23;65.95;100905.28;4797377;29;20043;-88
2022/11/07 12:30:22;;;;;;;3.67;1.48;;;;;;;17.24;65.76;100904.38;4796049;29;20069;-81
2022/11/07 12:33:32;;;;;;;3.35;1.48;;;;;;;17.24;65.93;100910.44;4817100;29;20042;-83
2022/11/07 12:36:33;;;;;;;3.30;1.40;;;;;;;17.25;65.74;100901.78;4799435;29;20514;-84
2022/11/07 12:39:47;;;;;;;3.47;1.40;;;;;;;17.28;65.70;100906.09;4776271;29;20038;-84
2022/11/07 12:42:26;;;;;;;3.22;1.20;;;;;;;17.30;65.88;100903.50;4779741;29;20042;-85
2022/11/07 12:45:35;;;;;;;5.47;1.50;;;;;;;17.32;65.84;100896.53;4797398;29;20054;-85
2022/11/07 12:48:40;;;;;;;4.65;1.23;;;;;;;17.34;65.89;100898.25;4796230;29;20110;-84
2022/11/07 12:51:24;;;;;;;;;;;;;;;17.36;66.00;100901.72;4777660;30;20054;-87
2022/11/07 12:54:16;;;;;;;3.92;1.38;;;;;;;17.36;66.14;100896.50;4772926;30;19924;-85
2022/11/07 12:56:44;;;;;;;2.80;1.20;;;;;;;17.35;66.18;100896.50;4772145;30;20034;-84
2022/11/07 12:59:19;;;;;;;3.10;1.27;;;;;;;17.35;66.08;100897.38;4762174;30;20031;-86
2022/11/07 13:02:10;;;;;;;2.85;1.30;;;;;;;17.34;66.36;100895.66;4779056;30;20073;-84
2022/11/07 13:04:46;;;;;;;3.03;1.48;;;;;;;17.32;66.15;100900.00;4790873;30;20138;-85
2022/11/07 13:07:56;;;;;;;4.72;1.30;;;;;;;17.34;66.22;100900.00;4773874;30;20082;-84
2022/11/07 13:10:42;;;;;;;3.95;1.23;;;;;;;17.32;66.35;100893.94;4719706;30;20040;-84
2022/11/07 13:13:18;;;;;;;3.30;1.30;;;;;;;17.32;66.33;100891.34;4772630;30;20075;-85
2022/11/07 13:15:44;;;;;;;2.67;1.20;;;;;;;17.32;66.29;100892.19;4772163;30;20031;-85
2022/11/07 13:18:24;;;;;;;2.60;1.20;;;;;;;17.31;66.26;100895.69;4760597;30;20039;-86
2022/11/07 13:20:59;;;;;;;3.53;1.40;;;;;;;17.32;66.37;100888.75;4774368;30;20384;-85
2022/11/07 13:23:27;;;;;;;2.92;1.38;;;;;;;17.30;66.43;100888.75;4772812;30;20062;-86
2022/11/07 13:26:09;;;;;;;2.53;1.20;;;;;;;17.30;66.38;100880.94;4773513;30;20487;-85
2022/11/07 13:28:55;;;;;;;2.85;1.30;;;;;;;17.32;66.65;100886.13;4775032;30;20039;-85
2022/11/07 13:31:35;;;;;;;2.58;1.27;;;;;;;17.31;66.34;100881.78;4775657;30;20095;-84
2022/11/07 13:34:23;;;;;;;4.03;1.30;;;;;;;17.30;66.43;100893.09;4759289;30;20031;-85
2022/11/07 13:36:59;;;;;;;2.75;1.30;;;;;;;17.30;66.18;100883.53;4773300;30;20042;-84
2022/11/07 13:39:24;;;;;;;2.22;1.05;;;;;;;17.30;66.43;100885.28;4776063;30;20377;-84
2022/11/07 13:41:51;;;;;;;2.78;1.17;;;;;;;17.30;66.50;100882.69;4774158;30;20073;-84
2022/11/07 13:44:24;;;;;;;3.58;1.20;;;;;;;17.31;66.33;100881.78;4777644;30;20040;-85
2022/11/07 13:46:52;;;;;;;;;;;;;;;17.30;66.31;100886.13;4775024;30;20032;-85
2022/11/07 13:49:29;;;;;;;2.78;1.58;;;;;;;17.30;66.24;100880.94;4776964;29;19944;-85
2022/11/07 13:52:00;;;;;;;3.60;1.50;;;;;;;17.30;66.23;100880.94;4793828;29;20047;-86
2022/11/07 13:54:51;;;;;;;3.50;1.25;;;;;;;17.29;66.36;100881.84;4794820;29;20042;-84
2022/11/07 13:57:19;;;;;;;2.95;1.20;;;;;;;17.29;66.28;100868.81;4805301;29;20027;-85
2022/11/07 14:00:01;;;;;;;2.72;1.10;;;;;;;17.28;66.29;100873.13;4804436;29;20039;-82
2022/11/07 14:02:28;;;;;;;2.78;1.20;;;;;;;17.29;66.25;100874.03;4800482;29;20027;-86
2022/11/07 14:05:06;;;;;;;3.30;1.20;;;;;;;17.28;66.28;100870.53;4804465;29;20034;-85
2022/11/07 14:07:34;;;;;;;2.28;1.17;;;;;;;17.29;66.37;100874.03;4794187;29;20026;-84
2022/11/07 14:10:00;;;;;;;3.78;1.30;;;;;;;17.28;66.27;100873.13;4781237;29;20058;-83
2022/11/07 14:12:27;;;;;;;3.10;1.35;;;;;;;17.28;66.36;100873.13;4796820;29;20035;-84
2022/11/07 14:14:55;;;;;;;4.90;1.30;;;;;;;17.28;66.18;100880.94;4796979;29;20563;-84
2022/11/07 14:17:29;;;;;;;2.63;1.00;;;;;;;17.29;66.08;100881.84;4814263;29;20027;-85
2022/11/07 14:20:18;;;;;;;2.92;1.30;;;;;;;17.29;66.17;100876.63;4796830;29;20030;-86
2022/11/07 14:23:02;;;;;;;2.05;1.10;;;;;;;17.28;66.32;100883.53;4797633;29;20051;-85
2022/11/07 14:25:31;;;;;;;3.47;1.35;;;;;;;17.28;66.39;100882.69;4782160;29;20041;-84
2022/11/07 14:27:58;;;;;;;3.00;1.10;;;;;;;17.28;66.45;100888.75;4797029;29;20113;-85
2022/11/07 14:30:25;;;;;;;4.30;1.35;;;;;;;17.28;66.16;100883.53;4797240;29;20034;-85
2022/11/07 14:32:54;;;;;;;2.72;1.00;;;;;;;17.27;66.33;100879.22;4783555;29;20038;-84
2022/11/07 14:35:26;;;;;;;5.22;1.48;;;;;;;17.29;66.25;100887.03;4796173;29;20121;-83
2022/11/07 14:37:52;;;;;;;3.63;1.20;;;;;;;17.27;66.23;100887.03;4800244;29;20038;-86
2022/11/07 14:40:18;;;;;;;2.75;1.17;;;;;;;17.27;66.18;100884.44;4802985;29;20048;-85
2022/11/07 14:42:45;;;;;;;2.15;1.05;;;;;;;17.27;66.29;100887.03;4789481;29;20034;-84
2022/11/07 14:45:14;;;;;;;3.47;1.25;;;;;;;17.27;66.34;100886.19;4802711;29;20039;-85
2022/11/07 14:47:40;;;;;;;3.72;1.30;;;;;;;17.27;66.05;100886.19;4799995;29;20058;-85
2022/11/07 14:50:14;;;;;;;2.50;1.33;;;;;;;17.27;66.30;100876.63;4818075;29;20069;-86
2022/11/07 14:55:55;;;;;;;5.55;1.25;;;;;;;17.31;66.03;100885.28;4984145;24;20110;-89
2022/11/07 14:58:23;;;;;;;3.95;1.33;;;;;;;17.33;66.22;100880.91;4857142;29;20033;-89
2022/11/07 15:01:05;;;;;;;3.53;1.20;;;;;;;17.32;66.24;100884.41;4850681;29;20026;-87
2022/11/07 15:03:32;;;;;;;3.13;1.13;;;;;;;17.36;66.28;100877.44;4834831;29;20121;-87
2022/11/07 15:05:58;;;;;;;3.25;1.40;;;;;;;17.36;66.44;100880.03;4808254;29;20033;-87
2022/11/07 15:08:29;;;;;;;2.38;1.20;;;;;;;17.34;66.48;100872.25;4857258;29;20425;-86
2022/11/07 15:11:15;;;;;;;2.47;1.00;;;;;;;17.37;66.34;100872.19;4857784;29;20366;-87
2022/11/07 15:13:48;;;;;;;2.40;1.17;;;;;;;17.35;66.51;100878.28;4839745;29;20065;-88
2022/11/07 15:16:19;;;;;;;2.75;1.10;;;;;;;17.35;66.44;100868.75;4825580;29;20121;-88
2022/11/07 15:19:00;;;;;;;5.00;1.20;;;;;;;17.36;66.44;100880.03;4840887;29;20505;-88
2022/11/07 15:21:29;;;;;;;2.72;1.38;;;;;;;17.34;66.38;100869.63;4839610;29;20041;-90
2022/11/07 15:23:56;;;;;;;3.58;1.27;;;;;;;17.34;66.68;100877.44;4842423;29;20026;-84